sensor_id;sensor_type;location;lat;lon;timestamp;P1;durP1;ratioP1;P2;durP2;ratioP2
33190;SDS011;19554;42.652;23.364;2022-08-16T00:00:54;14.13;;;11.25;;
33190;SDS011;19554;42.652;23.364;2022-08-16T00:03:19;18.08;;;11.45;;
33190;SDS011;19554;42.652;23.364;2022-08-16T00:05:45;13.82;;;11.23;;
33190;SDS011;19554;42.652;23.364;2022-08-16T00:08:10;15.65;;;11.48;;
33190;SDS011;19554;42.652;23.364;2022-08-16T00:10:36;14.25;;;10.75;;
33190;SDS011;19554;42.652;23.364;2022-08-16T00:13:05;14.98;;;11.90;;
33190;SDS011;19554;42.652;23.364;2022-08-16T00:15:37;17.52;;;11.80;;
33190;SDS011;19554;42.652;23.364;2022-08-16T00:18:07;14.93;;;12.13;;
33190;SDS011;19554;42.652;23.364;2022-08-16T00:20:34;14.63;;;11.52;;
33190;SDS011;19554;42.652;23.364;2022-08-16T00:23:02;13.85;;;11.23;;
33190;SDS011;19554;42.652;23.364;2022-08-16T00:25:28;17.30;;;11.68;;
33190;SDS011;19554;42.652;23.364;2022-08-16T00:27:54;14.85;;;11.57;;
33190;SDS011;19554;42.652;23.364;2022-08-16T00:30:20;16.58;;;11.70;;
33190;SDS011;19554;42.652;23.364;2022-08-16T00:32:47;14.05;;;11.15;;
33190;SDS011;19554;42.652;23.364;2022-08-16T00:35:19;15.93;;;11.27;;
33190;SDS011;19554;42.652;23.364;2022-08-16T00:37:47;16.08;;;11.25;;
33190;SDS011;19554;42.652;23.364;2022-08-16T00:40:15;12.20;;;9.70;;
33190;SDS011;19554;42.652;23.364;2022-08-16T00:42:43;16.30;;;10.07;;
33190;SDS011;19554;42.652;23.364;2022-08-16T00:47:44;15.85;;;10.57;;
33190;SDS011;19554;42.652;23.364;2022-08-16T00:50:11;14.40;;;11.15;;
33190;SDS011;19554;42.652;23.364;2022-08-16T00:52:38;12.63;;;10.23;;
33190;SDS011;19554;42.652;23.364;2022-08-16T00:55:06;14.95;;;10.77;;
33190;SDS011;19554;42.652;23.364;2022-08-16T00:57:33;12.82;;;11.05;;
33190;SDS011;19554;42.652;23.364;2022-08-16T01:00:00;13.77;;;11.27;;
33190;SDS011;19554;42.652;23.364;2022-08-16T01:02:25;16.73;;;11.35;;
33190;SDS011;19554;42.652;23.364;2022-08-16T01:04:51;16.67;;;10.65;;
33190;SDS011;19554;42.652;23.364;2022-08-16T01:07:17;18.38;;;11.50;;
33190;SDS011;19554;42.652;23.364;2022-08-16T01:09:43;13.55;;;10.48;;
33190;SDS011;19554;42.652;23.364;2022-08-16T01:12:08;13.35;;;9.88;;
33190;SDS011;19554;42.652;23.364;2022-08-16T01:14:45;16.08;;;10.75;;
33190;SDS011;19554;42.652;23.364;2022-08-16T01:17:18;13.77;;;10.73;;
33190;SDS011;19554;42.652;23.364;2022-08-16T01:19:47;18.10;;;11.35;;
33190;SDS011;19554;42.652;23.364;2022-08-16T01:25:21;16.33;;;10.32;;
33190;SDS011;19554;42.652;23.364;2022-08-16T01:27:51;15.70;;;9.88;;
33190;SDS011;19554;42.652;23.364;2022-08-16T01:30:21;12.63;;;10.45;;
33190;SDS011;19554;42.652;23.364;2022-08-16T01:32:50;14.23;;;10.43;;
33190;SDS011;19554;42.652;23.364;2022-08-16T01:35:21;13.02;;;9.88;;
33190;SDS011;19554;42.652;23.364;2022-08-16T01:37:52;11.60;;;9.95;;
33190;SDS011;19554;42.652;23.364;2022-08-16T01:40:21;14.65;;;10.25;;
33190;SDS011;19554;42.652;23.364;2022-08-16T01:42:56;12.82;;;11.20;;
33190;SDS011;19554;42.652;23.364;2022-08-16T01:45:22;15.27;;;11.68;;
33190;SDS011;19554;42.652;23.364;2022-08-16T01:47:48;11.63;;;10.45;;
33190;SDS011;19554;42.652;23.364;2022-08-16T01:50:16;16.17;;;11.40;;
33190;SDS011;19554;42.652;23.364;2022-08-16T01:52:41;17.30;;;11.60;;
33190;SDS011;19554;42.652;23.364;2022-08-16T01:55:07;14.35;;;10.95;;
33190;SDS011;19554;42.652;23.364;2022-08-16T01:57:33;14.43;;;10.68;;
33190;SDS011;19554;42.652;23.364;2022-08-16T02:00:00;18.83;;;9.90;;
33190;SDS011;19554;42.652;23.364;2022-08-16T02:02:26;12.80;;;10.82;;
33190;SDS011;19554;42.652;23.364;2022-08-16T02:04:52;15.77;;;10.82;;
33190;SDS011;19554;42.652;23.364;2022-08-16T02:07:18;12.30;;;10.23;;
33190;SDS011;19554;42.652;23.364;2022-08-16T02:09:45;17.67;;;11.45;;
33190;SDS011;19554;42.652;23.364;2022-08-16T02:12:12;19.38;;;12.10;;
33190;SDS011;19554;42.652;23.364;2022-08-16T02:14:40;15.27;;;11.68;;
33190;SDS011;19554;42.652;23.364;2022-08-16T02:17:07;14.25;;;11.00;;
33190;SDS011;19554;42.652;23.364;2022-08-16T02:19:34;18.30;;;10.45;;
33190;SDS011;19554;42.652;23.364;2022-08-16T02:22:02;15.88;;;10.98;;
33190;SDS011;19554;42.652;23.364;2022-08-16T02:24:31;17.98;;;12.90;;
33190;SDS011;19554;42.652;23.364;2022-08-16T02:26:57;13.18;;;11.15;;
33190;SDS011;19554;42.652;23.364;2022-08-16T02:29:23;18.27;;;12.20;;
33190;SDS011;19554;42.652;23.364;2022-08-16T02:31:49;19.73;;;12.68;;
33190;SDS011;19554;42.652;23.364;2022-08-16T02:34:15;18.02;;;12.23;;
33190;SDS011;19554;42.652;23.364;2022-08-16T02:36:42;13.55;;;12.15;;
33190;SDS011;19554;42.652;23.364;2022-08-16T02:39:08;17.70;;;12.57;;
33190;SDS011;19554;42.652;23.364;2022-08-16T02:41:35;17.45;;;11.70;;
33190;SDS011;19554;42.652;23.364;2022-08-16T02:44:02;18.38;;;12.75;;
33190;SDS011;19554;42.652;23.364;2022-08-16T02:46:28;17.80;;;12.82;;
33190;SDS011;19554;42.652;23.364;2022-08-16T02:48:53;20.42;;;14.02;;
33190;SDS011;19554;42.652;23.364;2022-08-16T02:51:19;16.75;;;12.90;;
33190;SDS011;19554;42.652;23.364;2022-08-16T02:53:45;15.57;;;13.20;;
33190;SDS011;19554;42.652;23.364;2022-08-16T02:56:13;15.18;;;13.05;;
33190;SDS011;19554;42.652;23.364;2022-08-16T02:58:40;18.38;;;14.48;;
33190;SDS011;19554;42.652;23.364;2022-08-16T03:01:06;15.45;;;13.38;;
33190;SDS011;19554;42.652;23.364;2022-08-16T03:03:33;17.63;;;14.73;;
33190;SDS011;19554;42.652;23.364;2022-08-16T03:06:01;14.23;;;12.73;;
33190;SDS011;19554;42.652;23.364;2022-08-16T03:08:27;17.63;;;13.75;;
33190;SDS011;19554;42.652;23.364;2022-08-16T03:10:52;17.90;;;14.10;;
33190;SDS011;19554;42.652;23.364;2022-08-16T03:13:18;19.13;;;14.00;;
33190;SDS011;19554;42.652;23.364;2022-08-16T03:15:45;18.40;;;14.32;;
33190;SDS011;19554;42.652;23.364;2022-08-16T03:18:11;16.27;;;13.65;;
33190;SDS011;19554;42.652;23.364;2022-08-16T03:20:37;16.25;;;13.73;;
33190;SDS011;19554;42.652;23.364;2022-08-16T03:23:03;21.40;;;13.38;;
33190;SDS011;19554;42.652;23.364;2022-08-16T03:25:30;17.40;;;15.20;;
33190;SDS011;19554;42.652;23.364;2022-08-16T03:27:57;15.57;;;13.70;;
33190;SDS011;19554;42.652;23.364;2022-08-16T03:30:25;16.45;;;14.65;;
33190;SDS011;19554;42.652;23.364;2022-08-16T03:32:53;16.23;;;13.15;;
33190;SDS011;19554;42.652;23.364;2022-08-16T03:35:20;17.67;;;13.23;;
33190;SDS011;19554;42.652;23.364;2022-08-16T03:37:51;16.00;;;12.75;;
33190;SDS011;19554;42.652;23.364;2022-08-16T03:40:20;18.70;;;13.95;;
33190;SDS011;19554;42.652;23.364;2022-08-16T03:42:46;18.60;;;12.27;;
33190;SDS011;19554;42.652;23.364;2022-08-16T03:45:11;14.48;;;12.65;;
33190;SDS011;19554;42.652;23.364;2022-08-16T03:47:38;18.25;;;13.05;;
33190;SDS011;19554;42.652;23.364;2022-08-16T03:50:05;16.40;;;14.52;;
33190;SDS011;19554;42.652;23.364;2022-08-16T03:52:31;17.88;;;14.20;;
33190;SDS011;19554;42.652;23.364;2022-08-16T03:54:59;18.92;;;14.45;;
33190;SDS011;19554;42.652;23.364;2022-08-16T03:57:25;17.52;;;13.40;;
33190;SDS011;19554;42.652;23.364;2022-08-16T03:59:52;21.38;;;14.30;;
33190;SDS011;19554;42.652;23.364;2022-08-16T04:02:17;22.63;;;13.82;;
33190;SDS011;19554;42.652;23.364;2022-08-16T04:04:43;22.30;;;14.60;;
33190;SDS011;19554;42.652;23.364;2022-08-16T04:07:09;23.60;;;14.60;;
33190;SDS011;19554;42.652;23.364;2022-08-16T04:09:34;19.67;;;14.30;;
33190;SDS011;19554;42.652;23.364;2022-08-16T04:12:00;18.85;;;13.70;;
33190;SDS011;19554;42.652;23.364;2022-08-16T04:14:26;15.68;;;12.10;;
33190;SDS011;19554;42.652;23.364;2022-08-16T04:16:51;20.08;;;12.65;;
33190;SDS011;19554;42.652;23.364;2022-08-16T04:19:16;18.95;;;13.25;;
33190;SDS011;19554;42.652;23.364;2022-08-16T04:21:42;20.92;;;13.60;;
33190;SDS011;19554;42.652;23.364;2022-08-16T04:24:07;18.33;;;13.82;;
33190;SDS011;19554;42.652;23.364;2022-08-16T04:26:33;20.80;;;13.95;;
33190;SDS011;19554;42.652;23.364;2022-08-16T04:28:59;17.13;;;13.93;;
33190;SDS011;19554;42.652;23.364;2022-08-16T04:31:25;17.02;;;13.13;;
33190;SDS011;19554;42.652;23.364;2022-08-16T04:33:51;17.17;;;12.93;;
33190;SDS011;19554;42.652;23.364;2022-08-16T04:36:17;21.63;;;14.10;;
33190;SDS011;19554;42.652;23.364;2022-08-16T04:38:43;19.95;;;15.45;;
33190;SDS011;19554;42.652;23.364;2022-08-16T04:41:09;20.88;;;13.60;;
33190;SDS011;19554;42.652;23.364;2022-08-16T04:43:34;19.90;;;14.95;;
33190;SDS011;19554;42.652;23.364;2022-08-16T04:46:02;21.38;;;15.10;;
33190;SDS011;19554;42.652;23.364;2022-08-16T04:48:28;22.02;;;15.43;;
33190;SDS011;19554;42.652;23.364;2022-08-16T04:50:53;24.83;;;15.98;;
33190;SDS011;19554;42.652;23.364;2022-08-16T04:53:20;20.75;;;15.55;;
33190;SDS011;19554;42.652;23.364;2022-08-16T04:55:45;21.30;;;16.25;;
33190;SDS011;19554;42.652;23.364;2022-08-16T04:58:11;21.35;;;17.15;;
33190;SDS011;19554;42.652;23.364;2022-08-16T05:00:36;25.98;;;18.30;;
33190;SDS011;19554;42.652;23.364;2022-08-16T05:03:03;22.77;;;17.90;;
33190;SDS011;19554;42.652;23.364;2022-08-16T05:05:31;22.45;;;17.42;;
33190;SDS011;19554;42.652;23.364;2022-08-16T05:07:57;23.27;;;17.70;;
33190;SDS011;19554;42.652;23.364;2022-08-16T05:10:23;20.83;;;16.67;;
33190;SDS011;19554;42.652;23.364;2022-08-16T05:12:49;20.55;;;16.77;;
33190;SDS011;19554;42.652;23.364;2022-08-16T05:15:14;26.25;;;17.13;;
33190;SDS011;19554;42.652;23.364;2022-08-16T05:17:40;25.17;;;16.75;;
33190;SDS011;19554;42.652;23.364;2022-08-16T05:20:06;24.60;;;17.23;;
33190;SDS011;19554;42.652;23.364;2022-08-16T05:22:33;23.77;;;16.25;;
33190;SDS011;19554;42.652;23.364;2022-08-16T05:25:01;23.33;;;16.35;;
33190;SDS011;19554;42.652;23.364;2022-08-16T05:27:27;22.30;;;16.08;;
33190;SDS011;19554;42.652;23.364;2022-08-16T05:29:52;30.35;;;17.00;;
33190;SDS011;19554;42.652;23.364;2022-08-16T05:32:19;39.38;;;18.90;;
33190;SDS011;19554;42.652;23.364;2022-08-16T05:34:44;32.90;;;17.58;;
33190;SDS011;19554;42.652;23.364;2022-08-16T05:37:10;23.25;;;15.48;;
33190;SDS011;19554;42.652;23.364;2022-08-16T05:39:35;23.83;;;16.67;;
33190;SDS011;19554;42.652;23.364;2022-08-16T05:42:01;28.50;;;15.45;;
33190;SDS011;19554;42.652;23.364;2022-08-16T05:44:26;20.10;;;15.13;;
33190;SDS011;19554;42.652;23.364;2022-08-16T05:46:53;23.17;;;16.35;;
33190;SDS011;19554;42.652;23.364;2022-08-16T05:49:20;21.85;;;16.65;;
33190;SDS011;19554;42.652;23.364;2022-08-16T05:51:46;26.20;;;16.60;;
33190;SDS011;19554;42.652;23.364;2022-08-16T05:54:12;27.45;;;16.17;;
33190;SDS011;19554;42.652;23.364;2022-08-16T05:56:41;24.92;;;18.40;;
33190;SDS011;19554;42.652;23.364;2022-08-16T05:59:07;21.98;;;16.80;;
33190;SDS011;19554;42.652;23.364;2022-08-16T06:01:33;22.30;;;17.05;;
33190;SDS011;19554;42.652;23.364;2022-08-16T06:03:59;22.83;;;16.33;;
33190;SDS011;19554;42.652;23.364;2022-08-16T06:06:24;22.48;;;15.85;;
33190;SDS011;19554;42.652;23.364;2022-08-16T06:08:50;22.70;;;16.73;;
33190;SDS011;19554;42.652;23.364;2022-08-16T06:11:15;21.98;;;15.05;;
33190;SDS011;19554;42.652;23.364;2022-08-16T06:13:41;20.38;;;15.70;;
33190;SDS011;19554;42.652;23.364;2022-08-16T06:16:07;25.80;;;14.68;;
33190;SDS011;19554;42.652;23.364;2022-08-16T06:18:33;20.25;;;15.38;;
33190;SDS011;19554;42.652;23.364;2022-08-16T06:20:58;21.38;;;15.32;;
33190;SDS011;19554;42.652;23.364;2022-08-16T06:23:24;20.00;;;14.55;;
33190;SDS011;19554;42.652;23.364;2022-08-16T06:25:50;18.40;;;13.68;;
33190;SDS011;19554;42.652;23.364;2022-08-16T06:28:16;17.13;;;13.85;;
33190;SDS011;19554;42.652;23.364;2022-08-16T06:30:42;18.50;;;13.75;;
33190;SDS011;19554;42.652;23.364;2022-08-16T06:33:07;20.58;;;13.65;;
33190;SDS011;19554;42.652;23.364;2022-08-16T06:35:33;18.25;;;14.57;;
33190;SDS011;19554;42.652;23.364;2022-08-16T06:38:00;19.55;;;14.15;;
33190;SDS011;19554;42.652;23.364;2022-08-16T06:40:26;19.65;;;15.35;;
33190;SDS011;19554;42.652;23.364;2022-08-16T06:42:52;27.08;;;15.35;;
33190;SDS011;19554;42.652;23.364;2022-08-16T06:45:17;27.77;;;14.60;;
33190;SDS011;19554;42.652;23.364;2022-08-16T06:47:43;32.35;;;16.85;;
33190;SDS011;19554;42.652;23.364;2022-08-16T06:50:09;31.98;;;15.38;;
33190;SDS011;19554;42.652;23.364;2022-08-16T06:52:36;28.30;;;14.23;;
33190;SDS011;19554;42.652;23.364;2022-08-16T06:55:05;18.33;;;12.88;;
33190;SDS011;19554;42.652;23.364;2022-08-16T06:57:33;18.38;;;14.32;;
33190;SDS011;19554;42.652;23.364;2022-08-16T06:59:58;23.27;;;14.13;;
33190;SDS011;19554;42.652;23.364;2022-08-16T07:02:23;17.63;;;12.68;;
33190;SDS011;19554;42.652;23.364;2022-08-16T07:04:50;22.50;;;13.85;;
33190;SDS011;19554;42.652;23.364;2022-08-16T07:07:17;31.10;;;14.93;;
33190;SDS011;19554;42.652;23.364;2022-08-16T07:09:43;25.95;;;13.25;;
33190;SDS011;19554;42.652;23.364;2022-08-16T07:12:08;25.30;;;15.05;;
33190;SDS011;19554;42.652;23.364;2022-08-16T07:14:34;22.50;;;13.35;;
33190;SDS011;19554;42.652;23.364;2022-08-16T07:16:59;18.45;;;12.75;;
33190;SDS011;19554;42.652;23.364;2022-08-16T07:19:26;19.30;;;13.20;;
33190;SDS011;19554;42.652;23.364;2022-08-16T07:21:56;18.60;;;12.60;;
33190;SDS011;19554;42.652;23.364;2022-08-16T07:24:21;22.73;;;13.98;;
33190;SDS011;19554;42.652;23.364;2022-08-16T07:26:47;17.00;;;13.50;;
33190;SDS011;19554;42.652;23.364;2022-08-16T07:29:12;21.52;;;14.05;;
33190;SDS011;19554;42.652;23.364;2022-08-16T07:31:38;19.63;;;14.82;;
33190;SDS011;19554;42.652;23.364;2022-08-16T07:34:03;18.35;;;15.15;;
33190;SDS011;19554;42.652;23.364;2022-08-16T07:36:28;20.27;;;13.68;;
33190;SDS011;19554;42.652;23.364;2022-08-16T07:38:54;19.92;;;13.10;;
33190;SDS011;19554;42.652;23.364;2022-08-16T07:41:19;17.38;;;14.73;;
33190;SDS011;19554;42.652;23.364;2022-08-16T07:43:45;18.55;;;14.00;;
33190;SDS011;19554;42.652;23.364;2022-08-16T07:46:10;17.33;;;13.43;;
33190;SDS011;19554;42.652;23.364;2022-08-16T07:48:36;18.63;;;13.90;;
33190;SDS011;19554;42.652;23.364;2022-08-16T07:51:01;17.30;;;13.18;;
33190;SDS011;19554;42.652;23.364;2022-08-16T07:53:27;16.40;;;12.38;;
33190;SDS011;19554;42.652;23.364;2022-08-16T07:55:54;16.45;;;12.15;;
33190;SDS011;19554;42.652;23.364;2022-08-16T07:58:20;19.42;;;12.18;;
33190;SDS011;19554;42.652;23.364;2022-08-16T08:00:46;19.88;;;12.80;;
33190;SDS011;19554;42.652;23.364;2022-08-16T08:03:11;13.73;;;11.13;;
33190;SDS011;19554;42.652;23.364;2022-08-16T08:05:37;14.93;;;12.52;;
33190;SDS011;19554;42.652;23.364;2022-08-16T08:08:04;23.20;;;12.60;;
33190;SDS011;19554;42.652;23.364;2022-08-16T08:10:30;18.60;;;11.88;;
33190;SDS011;19554;42.652;23.364;2022-08-16T08:12:55;19.50;;;11.93;;
33190;SDS011;19554;42.652;23.364;2022-08-16T08:15:21;16.83;;;11.30;;
33190;SDS011;19554;42.652;23.364;2022-08-16T08:17:48;14.57;;;11.35;;
33190;SDS011;19554;42.652;23.364;2022-08-16T08:20:15;14.00;;;11.38;;
33190;SDS011;19554;42.652;23.364;2022-08-16T08:22:48;12.93;;;11.25;;
33190;SDS011;19554;42.652;23.364;2022-08-16T08:25:13;16.88;;;10.90;;
33190;SDS011;19554;42.652;23.364;2022-08-16T08:27:39;14.98;;;11.00;;
33190;SDS011;19554;42.652;23.364;2022-08-16T08:30:07;14.27;;;9.77;;
33190;SDS011;19554;42.652;23.364;2022-08-16T08:32:34;17.27;;;9.98;;
33190;SDS011;19554;42.652;23.364;2022-08-16T08:34:59;17.05;;;10.45;;
33190;SDS011;19554;42.652;23.364;2022-08-16T08:37:26;13.50;;;10.23;;
33190;SDS011;19554;42.652;23.364;2022-08-16T08:39:52;16.88;;;10.82;;
33190;SDS011;19554;42.652;23.364;2022-08-16T08:42:18;13.40;;;10.60;;
33190;SDS011;19554;42.652;23.364;2022-08-16T08:44:43;15.15;;;10.30;;
33190;SDS011;19554;42.652;23.364;2022-08-16T08:47:08;14.80;;;9.90;;
33190;SDS011;19554;42.652;23.364;2022-08-16T08:49:34;13.45;;;10.25;;
33190;SDS011;19554;42.652;23.364;2022-08-16T08:52:01;14.48;;;9.52;;
33190;SDS011;19554;42.652;23.364;2022-08-16T08:54:27;12.77;;;9.90;;
33190;SDS011;19554;42.652;23.364;2022-08-16T08:56:52;14.02;;;10.30;;
33190;SDS011;19554;42.652;23.364;2022-08-16T08:59:18;11.25;;;9.13;;
33190;SDS011;19554;42.652;23.364;2022-08-16T09:01:44;16.25;;;9.02;;
33190;SDS011;19554;42.652;23.364;2022-08-16T09:04:11;12.77;;;8.85;;
33190;SDS011;19554;42.652;23.364;2022-08-16T09:06:37;13.60;;;9.43;;
33190;SDS011;19554;42.652;23.364;2022-08-16T09:09:03;15.70;;;8.95;;
33190;SDS011;19554;42.652;23.364;2022-08-16T09:11:32;9.57;;;8.57;;
33190;SDS011;19554;42.652;23.364;2022-08-16T09:13:58;12.85;;;8.90;;
33190;SDS011;19554;42.652;23.364;2022-08-16T09:16:23;13.95;;;9.23;;
33190;SDS011;19554;42.652;23.364;2022-08-16T09:18:50;13.30;;;8.45;;
33190;SDS011;19554;42.652;23.364;2022-08-16T09:21:15;11.73;;;8.43;;
33190;SDS011;19554;42.652;23.364;2022-08-16T09:23:41;13.38;;;8.90;;
33190;SDS011;19554;42.652;23.364;2022-08-16T09:26:07;12.23;;;7.18;;
33190;SDS011;19554;42.652;23.364;2022-08-16T09:28:40;11.25;;;8.18;;
33190;SDS011;19554;42.652;23.364;2022-08-16T09:31:06;8.18;;;6.82;;
33190;SDS011;19554;42.652;23.364;2022-08-16T09:33:31;9.02;;;6.65;;
33190;SDS011;19554;42.652;23.364;2022-08-16T09:35:57;7.18;;;6.28;;
33190;SDS011;19554;42.652;23.364;2022-08-16T09:38:23;7.55;;;6.85;;
33190;SDS011;19554;42.652;23.364;2022-08-16T09:40:48;11.30;;;6.32;;
33190;SDS011;19554;42.652;23.364;2022-08-16T09:43:16;10.25;;;6.32;;
33190;SDS011;19554;42.652;23.364;2022-08-16T09:45:43;7.10;;;6.30;;
33190;SDS011;19554;42.652;23.364;2022-08-16T09:48:09;7.90;;;6.65;;
33190;SDS011;19554;42.652;23.364;2022-08-16T09:50:36;9.52;;;6.88;;
33190;SDS011;19554;42.652;23.364;2022-08-16T09:53:03;8.55;;;7.03;;
33190;SDS011;19554;42.652;23.364;2022-08-16T09:55:31;9.60;;;6.45;;
33190;SDS011;19554;42.652;23.364;2022-08-16T09:57:56;10.88;;;7.03;;
33190;SDS011;19554;42.652;23.364;2022-08-16T10:00:23;7.45;;;6.60;;
33190;SDS011;19554;42.652;23.364;2022-08-16T10:02:50;10.48;;;6.20;;
33190;SDS011;19554;42.652;23.364;2022-08-16T10:05:17;6.97;;;6.00;;
33190;SDS011;19554;42.652;23.364;2022-08-16T10:07:43;9.07;;;6.78;;
33190;SDS011;19554;42.652;23.364;2022-08-16T10:10:11;8.52;;;6.03;;
33190;SDS011;19554;42.652;23.364;2022-08-16T10:12:38;8.52;;;5.82;;
33190;SDS011;19554;42.652;23.364;2022-08-16T10:15:22;7.43;;;6.65;;
33190;SDS011;19554;42.652;23.364;2022-08-16T10:17:50;10.43;;;6.10;;
33190;SDS011;19554;42.652;23.364;2022-08-16T10:20:18;10.20;;;6.57;;
33190;SDS011;19554;42.652;23.364;2022-08-16T10:22:44;8.48;;;5.82;;
33190;SDS011;19554;42.652;23.364;2022-08-16T10:25:09;7.82;;;6.10;;
33190;SDS011;19554;42.652;23.364;2022-08-16T10:27:35;14.48;;;5.97;;
33190;SDS011;19554;42.652;23.364;2022-08-16T10:30:02;6.20;;;5.60;;
33190;SDS011;19554;42.652;23.364;2022-08-16T10:32:29;6.82;;;6.22;;
33190;SDS011;19554;42.652;23.364;2022-08-16T10:34:55;12.93;;;6.00;;
33190;SDS011;19554;42.652;23.364;2022-08-16T10:37:21;10.68;;;6.18;;
33190;SDS011;19554;42.652;23.364;2022-08-16T10:39:46;7.53;;;5.80;;
33190;SDS011;19554;42.652;23.364;2022-08-16T10:42:12;8.75;;;6.20;;
33190;SDS011;19554;42.652;23.364;2022-08-16T10:44:37;9.45;;;6.57;;
33190;SDS011;19554;42.652;23.364;2022-08-16T10:47:03;7.15;;;6.20;;
33190;SDS011;19554;42.652;23.364;2022-08-16T10:49:29;15.77;;;6.20;;
33190;SDS011;19554;42.652;23.364;2022-08-16T10:51:55;6.63;;;5.93;;
33190;SDS011;19554;42.652;23.364;2022-08-16T10:54:20;6.47;;;5.88;;
33190;SDS011;19554;42.652;23.364;2022-08-16T10:56:47;14.45;;;6.32;;
33190;SDS011;19554;42.652;23.364;2022-08-16T10:59:12;7.22;;;5.60;;
33190;SDS011;19554;42.652;23.364;2022-08-16T11:01:38;9.65;;;6.65;;
33190;SDS011;19554;42.652;23.364;2022-08-16T11:04:04;10.82;;;6.25;;
33190;SDS011;19554;42.652;23.364;2022-08-16T11:06:31;8.43;;;6.57;;
33190;SDS011;19554;42.652;23.364;2022-08-16T11:08:56;8.10;;;6.20;;
33190;SDS011;19554;42.652;23.364;2022-08-16T11:11:22;7.68;;;5.90;;
33190;SDS011;19554;42.652;23.364;2022-08-16T11:13:48;8.38;;;5.85;;
33190;SDS011;19554;42.652;23.364;2022-08-16T11:16:16;7.10;;;5.88;;
33190;SDS011;19554;42.652;23.364;2022-08-16T11:18:42;8.77;;;6.13;;
33190;SDS011;19554;42.652;23.364;2022-08-16T11:21:08;7.35;;;5.75;;
33190;SDS011;19554;42.652;23.364;2022-08-16T11:23:34;6.90;;;5.75;;
33190;SDS011;19554;42.652;23.364;2022-08-16T11:26:00;7.68;;;5.93;;
33190;SDS011;19554;42.652;23.364;2022-08-16T11:28:26;6.88;;;5.97;;
33190;SDS011;19554;42.652;23.364;2022-08-16T11:30:51;7.50;;;6.07;;
33190;SDS011;19554;42.652;23.364;2022-08-16T11:33:17;7.82;;;5.22;;
33190;SDS011;19554;42.652;23.364;2022-08-16T11:35:43;10.32;;;5.85;;
33190;SDS011;19554;42.652;23.364;2022-08-16T11:38:11;6.80;;;5.85;;
33190;SDS011;19554;42.652;23.364;2022-08-16T11:40:48;10.68;;;6.13;;
33190;SDS011;19554;42.652;23.364;2022-08-16T11:43:20;8.00;;;5.88;;
33190;SDS011;19554;42.652;23.364;2022-08-16T11:45:48;9.93;;;6.60;;
33190;SDS011;19554;42.652;23.364;2022-08-16T11:48:14;9.40;;;5.88;;
33190;SDS011;19554;42.652;23.364;2022-08-16T11:50:42;7.93;;;6.28;;
33190;SDS011;19554;42.652;23.364;2022-08-16T11:53:09;7.40;;;5.60;;
33190;SDS011;19554;42.652;23.364;2022-08-16T11:55:36;11.50;;;7.28;;
33190;SDS011;19554;42.652;23.364;2022-08-16T11:58:03;10.32;;;7.70;;
33190;SDS011;19554;42.652;23.364;2022-08-16T12:00:30;6.80;;;5.63;;
33190;SDS011;19554;42.652;23.364;2022-08-16T12:02:56;9.95;;;5.50;;
33190;SDS011;19554;42.652;23.364;2022-08-16T12:05:23;7.45;;;5.00;;
33190;SDS011;19554;42.652;23.364;2022-08-16T12:07:50;4.40;;;3.42;;
33190;SDS011;19554;42.652;23.364;2022-08-16T12:10:17;7.00;;;3.88;;
33190;SDS011;19554;42.652;23.364;2022-08-16T12:12:44;5.28;;;3.80;;
33190;SDS011;19554;42.652;23.364;2022-08-16T12:15:11;6.00;;;4.07;;
33190;SDS011;19554;42.652;23.364;2022-08-16T12:17:38;7.63;;;4.97;;
33190;SDS011;19554;42.652;23.364;2022-08-16T12:20:05;5.22;;;4.72;;
33190;SDS011;19554;42.652;23.364;2022-08-16T12:22:33;6.65;;;4.75;;
33190;SDS011;19554;42.652;23.364;2022-08-16T12:25:00;5.78;;;4.60;;
33190;SDS011;19554;42.652;23.364;2022-08-16T12:27:27;11.68;;;4.80;;
33190;SDS011;19554;42.652;23.364;2022-08-16T12:29:53;10.35;;;5.45;;
33190;SDS011;19554;42.652;23.364;2022-08-16T12:32:19;7.45;;;5.10;;
33190;SDS011;19554;42.652;23.364;2022-08-16T12:34:45;7.10;;;4.88;;
33190;SDS011;19554;42.652;23.364;2022-08-16T12:37:11;11.25;;;5.05;;
33190;SDS011;19554;42.652;23.364;2022-08-16T12:39:38;6.70;;;4.78;;
33190;SDS011;19554;42.652;23.364;2022-08-16T12:42:03;11.02;;;5.15;;
33190;SDS011;19554;42.652;23.364;2022-08-16T12:44:29;5.40;;;4.22;;
33190;SDS011;19554;42.652;23.364;2022-08-16T12:46:55;5.95;;;5.35;;
33190;SDS011;19554;42.652;23.364;2022-08-16T12:49:39;7.22;;;6.03;;
33190;SDS011;19554;42.652;23.364;2022-08-16T12:52:05;8.30;;;5.60;;
33190;SDS011;19554;42.652;23.364;2022-08-16T12:54:30;10.35;;;5.35;;
33190;SDS011;19554;42.652;23.364;2022-08-16T12:56:56;7.25;;;5.05;;
33190;SDS011;19554;42.652;23.364;2022-08-16T12:59:21;5.20;;;4.72;;
33190;SDS011;19554;42.652;23.364;2022-08-16T13:01:47;10.25;;;5.78;;
33190;SDS011;19554;42.652;23.364;2022-08-16T13:04:13;7.47;;;5.75;;
33190;SDS011;19554;42.652;23.364;2022-08-16T13:06:39;6.30;;;5.55;;
33190;SDS011;19554;42.652;23.364;2022-08-16T13:09:06;6.57;;;5.20;;
33190;SDS011;19554;42.652;23.364;2022-08-16T13:12:01;7.50;;;5.75;;
33190;SDS011;19554;42.652;23.364;2022-08-16T13:14:41;5.80;;;5.07;;
33190;SDS011;19554;42.652;23.364;2022-08-16T13:17:09;11.95;;;5.43;;
33190;SDS011;19554;42.652;23.364;2022-08-16T13:22:03;10.55;;;5.70;;
33190;SDS011;19554;42.652;23.364;2022-08-16T13:24:29;8.60;;;4.43;;
33190;SDS011;19554;42.652;23.364;2022-08-16T13:26:54;6.65;;;4.95;;
33190;SDS011;19554;42.652;23.364;2022-08-16T13:29:20;6.43;;;4.70;;
33190;SDS011;19554;42.652;23.364;2022-08-16T13:31:46;6.97;;;4.70;;
33190;SDS011;19554;42.652;23.364;2022-08-16T13:34:11;9.85;;;5.05;;
33190;SDS011;19554;42.652;23.364;2022-08-16T13:36:36;7.22;;;4.45;;
33190;SDS011;19554;42.652;23.364;2022-08-16T13:39:04;6.90;;;4.80;;
33190;SDS011;19554;42.652;23.364;2022-08-16T13:41:29;10.02;;;4.03;;
33190;SDS011;19554;42.652;23.364;2022-08-16T13:43:55;5.25;;;3.97;;
33190;SDS011;19554;42.652;23.364;2022-08-16T13:46:24;7.13;;;4.18;;
33190;SDS011;19554;42.652;23.364;2022-08-16T13:48:50;8.68;;;4.15;;
33190;SDS011;19554;42.652;23.364;2022-08-16T13:51:17;9.80;;;4.03;;
33190;SDS011;19554;42.652;23.364;2022-08-16T13:53:46;7.40;;;3.50;;
33190;SDS011;19554;42.652;23.364;2022-08-16T13:56:13;8.50;;;3.83;;
33190;SDS011;19554;42.652;23.364;2022-08-16T13:58:39;6.53;;;3.97;;
33190;SDS011;19554;42.652;23.364;2022-08-16T14:01:04;6.88;;;3.50;;
33190;SDS011;19554;42.652;23.364;2022-08-16T14:03:30;9.95;;;3.78;;
33190;SDS011;19554;42.652;23.364;2022-08-16T14:05:56;7.30;;;3.25;;
33190;SDS011;19554;42.652;23.364;2022-08-16T14:08:22;9.13;;;3.83;;
33190;SDS011;19554;42.652;23.364;2022-08-16T14:10:48;9.13;;;3.80;;
33190;SDS011;19554;42.652;23.364;2022-08-16T14:13:13;8.18;;;3.85;;
33190;SDS011;19554;42.652;23.364;2022-08-16T14:15:39;8.40;;;3.75;;
33190;SDS011;19554;42.652;23.364;2022-08-16T14:18:04;7.22;;;3.83;;
33190;SDS011;19554;42.652;23.364;2022-08-16T14:20:29;9.00;;;4.13;;
33190;SDS011;19554;42.652;23.364;2022-08-16T14:22:55;6.15;;;3.42;;